Upstream stations:
Downstream station:
SHEF ID: MTCO2 Tar Creek at 22nd Street Bridge
STATION TYPE:
PRECIP STAGE STAGE(2) RIV-FLOW BAT-LOAD
in ft ft cfs volt
Ccp-Rev Ccp-Rev Ccp-Rev Ccp-Rev Ccp-Rev
(US/Central)
05/16 00:00 0.00 3.82 3.98 6 12.33
05/16 01:00 0.00 3.85 4.00 7 12.25
05/16 02:00 0.00 3.85 4.00 7 12.25
05/16 03:00 0.00 3.85 4.00 7 12.25
05/16 04:00 0.00 3.85 4.01 7 12.25
05/16 05:00 0.00 3.85 4.00 7 12.17
05/16 06:00 0.00 3.85 4.00 7 12.17
05/16 07:00 0.00 3.86 4.02 7 12.17
05/16 08:00 0.00 3.85 4.01 7 12.17
05/16 09:00 0.00 3.84 4.00 7 12.25
05/16 10:00 0.00 3.85 4.00 7 12.33
05/16 11:00 0.00 3.85 3.99 7 12.41
05/16 12:00 0.00 3.85 3.99 7 12.89
05/16 13:00 0.00 3.85 3.98 7 12.97
05/16 14:00 0.00 3.84 3.97 7 12.89
05/16 15:00 0.00 3.84 3.97 7 12.81
05/16 16:00 0.00 3.84 3.96 7 12.73
05/16 17:00 0.00 3.84 3.96 7 12.65
05/16 18:00 0.00 3.83 3.96 7 12.57
05/16 19:00 0.00 3.83 3.96 7 12.89
05/16 20:00 0.00 3.82 3.95 6 12.57
05/16 21:00 0.00 3.82 3.95 6 12.41
05/16 22:00 0.00 3.81 3.95 6 12.33
05/16 23:00 0.00 3.81 3.95 6 12.33